Time;durP1;ratioP1;P1;durP2;ratioP2;P2;SDS_P1;SDS_P2;PMS_P1;PMS_P2;Temp;Humidity;BMP_temperature;BMP_pressure;BME280_temperature;BME280_humidity;BME280_pressure;Samples;Min_cycle;Max_cycle;Signal;HPM_P1;HPM_P2
2022/11/12 00:00:55;;;;;;;20.43;11.73;;;4.90;99.90;;;;;;10457127;28;20199;-96
2022/11/12 00:06:16;;;;;;;22.00;13.07;;;5.00;99.90;;;;;;10457607;28;20214;-96
2022/11/12 00:11:37;;;;;;;26.80;12.47;;;4.80;99.90;;;;;;10457114;28;20195;-96
2022/11/12 00:16:58;;;;;;;23.63;12.87;;;4.80;99.90;;;;;;10456741;28;20198;-96
2022/11/12 00:22:21;;;;;;;24.60;13.10;;;4.60;99.90;;;;;;10442244;28;20202;-96
2022/11/12 00:27:41;;;;;;;27.83;14.77;;;4.40;99.90;;;;;;10456364;28;20695;-96
2022/11/12 00:33:03;;;;;;;31.77;16.43;;;4.50;99.90;;;;;;10442523;28;20203;-96
2022/11/12 00:38:24;;;;;;;36.43;14.90;;;4.50;99.90;;;;;;10442735;28;20206;-96
2022/11/12 00:43:46;;;;;;;28.80;14.30;;;4.50;99.90;;;;;;10463783;28;20207;-96
2022/11/12 00:49:07;;;;;;;27.13;12.97;;;4.20;99.90;;;;;;10447246;28;20222;-96
2022/11/12 00:54:29;;;;;;;24.03;12.43;;;4.10;99.90;;;;;;10465229;28;20223;-96
2022/11/12 00:59:50;;;;;;;22.30;12.03;;;3.70;99.90;;;;;;10442696;28;20198;-92
2022/11/12 01:05:11;;;;;;;22.80;11.70;;;4.50;99.90;;;;;;10465955;28;20199;-91
2022/11/12 01:10:35;;;;;;;24.33;13.23;;;3.60;99.90;;;;;;10453791;28;20215;-90
2022/11/12 01:15:56;;;;;;;20.90;12.63;;;3.70;99.90;;;;;;10433389;28;20199;-91
2022/11/12 01:21:17;;;;;;;22.00;12.03;;;3.80;99.90;;;;;;10434111;28;20212;-92
2022/11/12 01:26:39;;;;;;;21.67;11.60;;;3.90;99.90;;;;;;10445311;28;20215;-91
2022/11/12 01:32:00;;;;;;;20.63;11.80;;;4.00;99.90;;;;;;10426607;28;20680;-91
2022/11/12 01:37:21;;;;;;;20.93;12.30;;;4.10;99.90;;;;;;10457388;28;20609;-91
2022/11/12 01:42:42;;;;;;;19.07;10.83;;;4.30;99.90;;;;;;10423411;28;20235;-91
2022/11/12 01:48:03;;;;;;;18.97;10.63;;;4.00;99.90;;;;;;10433120;28;20250;-92
2022/11/12 01:53:27;;;;;;;18.27;10.80;;;3.80;99.90;;;;;;10453383;28;20238;-92
2022/11/12 01:58:55;;;;;;;22.30;12.80;;;3.70;99.90;;;;;;10424549;28;20251;-91
2022/11/12 02:04:17;;;;;;;14.53;10.23;;;;;;;;;;10449159;28;20234;-91
2022/11/12 02:09:38;;;;;;;24.67;11.43;;;3.60;99.90;;;;;;10454294;28;20258;-91
2022/11/12 02:14:59;;;;;;;21.10;11.33;;;3.80;99.90;;;;;;10451550;28;20230;-92
2022/11/12 02:20:20;;;;;;;21.53;9.83;;;3.90;99.90;;;;;;10454143;28;20198;-92
2022/11/12 02:25:41;;;;;;;23.90;9.83;;;3.90;99.90;;;;;;10434765;28;20719;-91
2022/11/12 02:31:02;;;;;;;20.27;10.03;;;3.70;99.90;;;;;;10442251;28;20250;-91
2022/11/12 02:36:24;;;;;;;20.73;9.40;;;3.40;99.90;;;;;;10444248;28;20203;-92
2022/11/12 02:41:45;;;;;;;15.83;9.57;;;3.10;99.90;;;;;;10454747;28;20230;-91
2022/11/12 02:47:05;;;;;;;14.87;10.10;;;3.20;99.90;;;;;;10447652;28;20242;-91
2022/11/12 02:52:26;;;;;;;18.80;10.10;;;3.40;99.90;;;;;;10434517;28;20242;-92
2022/11/12 02:57:47;;;;;;;20.37;9.87;;;3.30;99.90;;;;;;10440715;28;20258;-92
2022/11/12 03:03:08;;;;;;;15.87;9.27;;;3.60;99.90;;;;;;10436398;28;20590;-92
2022/11/12 03:08:29;;;;;;;20.90;9.23;;;4.20;99.90;;;;;;10444621;28;20245;-91
2022/11/12 03:13:50;;;;;;;13.03;9.00;;;4.60;99.90;;;;;;10462565;28;20234;-92
2022/11/12 03:19:11;;;;;;;14.90;9.30;;;4.40;99.90;;;;;;10446634;28;20238;-91
2022/11/12 03:24:32;;;;;;;17.30;9.30;;;4.30;99.90;;;;;;10436393;28;20218;-91
2022/11/12 03:29:53;;;;;;;16.73;10.17;;;4.60;99.90;;;;;;10453091;28;20250;-91
2022/11/12 03:35:14;;;;;;;16.37;9.20;;;4.80;99.90;;;;;;10439603;28;20606;-91
2022/11/12 03:40:35;;;;;;;18.67;10.50;;;5.00;99.90;;;;;;10450644;28;20218;-92
2022/11/12 03:45:56;;;;;;;16.73;9.57;;;5.10;99.90;;;;;;10450925;28;20242;-92
2022/11/12 03:51:20;;;;;;;16.67;9.77;;;5.10;99.90;;;;;;10410018;28;20311;-91
2022/11/12 03:56:41;;;;;;;17.23;10.47;;;5.30;99.90;;;;;;10415398;28;20689;-92
2022/11/12 04:02:02;;;;;;;20.30;10.43;;;5.50;99.90;;;;;;10434297;28;20235;-91
2022/11/12 04:30:17;;;;;;;22.17;11.03;;;6.30;99.90;;;;;;10450905;28;20250;-92
2022/11/12 04:35:38;;;;;;;15.57;10.50;;;6.40;99.90;;;;;;10450092;28;20203;-91
2022/11/12 04:46:38;;;;;;;20.93;11.33;;;6.40;99.90;;;;;;10453380;28;20278;-92
2022/11/12 04:52:05;;;;;;;22.70;11.83;;;6.40;99.90;;;;;;10454088;28;20238;-92
2022/11/12 04:57:26;;;;;;;19.33;11.00;;;6.40;99.90;;;;;;10412572;28;20259;-92
2022/11/12 05:02:48;;;;;;;19.50;10.70;;;6.50;99.90;;;;;;10392958;28;20618;-92
2022/11/12 05:08:10;;;;;;;20.87;10.90;;;6.50;99.90;;;;;;10399268;28;20660;-91
2022/11/12 05:13:30;;;;;;;16.43;10.77;;;6.50;99.90;;;;;;10412642;28;20223;-91
2022/11/12 05:18:52;;;;;;;16.70;10.63;;;6.50;99.90;;;;;;10442921;28;20234;-91
2022/11/12 05:24:13;;;;;;;18.20;9.97;;;6.50;99.90;;;;;;10441970;28;20692;-91
2022/11/12 05:29:54;;;;;;;24.67;13.63;;;6.50;99.90;;;;;;10454721;28;20259;-91
2022/11/12 05:35:15;;;;;;;28.27;14.40;;;6.50;99.90;;;;;;10455727;28;20695;-92
2022/11/12 05:40:36;;;;;;;21.93;11.97;;;6.50;99.90;;;;;;10439808;28;20211;-91
2022/11/12 05:45:57;;;;;;;20.17;12.77;;;6.50;99.90;;;;;;10451138;28;20238;-92
2022/11/12 05:51:18;;;;;;;17.93;9.83;;;6.50;99.90;;;;;;10455965;28;20255;-92
2022/11/12 05:56:39;;;;;;;17.03;9.47;;;;;;;;;;10414046;28;20251;-91
2022/11/12 06:02:00;;;;;;;14.57;9.70;;;6.60;99.90;;;;;;10423044;28;20659;-92
2022/11/12 06:07:22;;;;;;;15.03;10.30;;;6.60;99.90;;;;;;10453681;28;20716;-91
2022/11/12 06:12:42;;;;;;;16.30;9.30;;;6.60;99.90;;;;;;10401563;28;20589;-91
2022/11/12 06:18:03;;;;;;;18.33;9.83;;;6.70;99.90;;;;;;10448864;28;20207;-92
2022/11/12 06:23:25;;;;;;;14.93;9.27;;;6.70;99.90;;;;;;10397443;28;20239;-91
2022/11/12 06:28:47;;;;;;;14.80;8.07;;;6.70;99.90;;;;;;10448287;28;20261;-90
2022/11/12 06:34:08;;;;;;;15.37;9.80;;;6.70;99.90;;;;;;10453395;28;20222;-91
2022/11/12 06:39:29;;;;;;;13.37;8.33;;;6.70;99.90;;;;;;10437599;28;20242;-90
2022/11/12 06:44:50;;;;;;;15.57;9.23;;;6.80;99.90;;;;;;10408601;28;20239;-90
2022/11/12 06:50:11;;;;;;;19.50;9.80;;;6.90;99.90;;;;;;10429908;28;20687;-90
2022/11/12 06:55:32;;;;;;;21.70;10.50;;;6.90;99.90;;;;;;10451785;28;20615;-90
2022/11/12 07:00:53;;;;;;;19.00;9.83;;;7.00;99.90;;;;;;10423164;28;20235;-90
2022/11/12 07:06:17;;;;;;;19.20;10.43;;;7.00;99.90;;;;;;10462971;28;20707;-90
2022/11/12 07:11:39;;;;;;;14.63;9.77;;;7.10;99.90;;;;;;10447876;28;20261;-90
2022/11/12 07:17:00;;;;;;;19.30;9.37;;;7.10;99.90;;;;;;10430615;28;20230;-90
2022/11/12 07:22:21;;;;;;;13.17;8.80;;;7.20;99.90;;;;;;10451173;28;20211;-90
2022/11/12 07:27:42;;;;;;;24.53;10.70;;;7.30;99.90;;;;;;10439465;28;20246;-90
2022/11/12 07:33:03;;;;;;;17.33;9.40;;;7.40;99.90;;;;;;10449851;28;20230;-91
2022/11/12 07:38:24;;;;;;;18.07;8.63;;;7.40;99.90;;;;;;10450335;28;20230;-90
2022/11/12 07:43:47;;;;;;;14.53;8.67;;;7.60;99.90;;;;;;10449547;28;20215;-90
2022/11/12 07:49:08;;;;;;;21.13;10.27;;;7.60;99.90;;;;;;10414452;28;20251;-90
2022/11/12 07:54:29;;;;;;;18.00;10.20;;;7.70;99.90;;;;;;10434413;28;20250;-90
2022/11/12 07:59:50;;;;;;;20.50;11.17;;;7.80;99.90;;;;;;10450632;28;20238;-90
2022/11/12 08:05:11;;;;;;;20.73;11.80;;;7.90;99.90;;;;;;10452525;28;20231;-90
2022/11/12 08:10:38;;;;;;;14.53;9.13;;;8.00;99.90;;;;;;10448835;28;20250;-90
2022/11/12 08:15:59;;;;;;;22.57;11.87;;;8.10;99.90;;;;;;10448176;28;20234;-90
2022/11/12 08:21:20;;;;;;;21.97;11.93;;;8.20;99.90;;;;;;10454869;28;20246;-90
2022/11/12 08:26:41;;;;;;;20.43;11.37;;;8.20;99.90;;;;;;10450568;28;20234;-90
2022/11/12 08:32:02;;;;;;;23.83;12.40;;;8.30;99.90;;;;;;10428956;28;20243;-90
2022/11/12 08:37:23;;;;;;;21.47;12.77;;;8.40;99.90;;;;;;10444588;28;20238;-90
2022/11/12 08:42:44;;;;;;;21.80;12.40;;;8.60;99.90;;;;;;10434615;28;20226;-90
2022/11/12 08:48:08;;;;;;;23.07;13.67;;;8.60;99.90;;;;;;10422536;28;20250;-90
2022/11/12 08:53:29;;;;;;;22.77;12.90;;;8.60;99.90;;;;;;10432977;28;20235;-90
2022/11/12 08:58:50;;;;;;;23.87;14.10;;;8.70;99.90;;;;;;10426431;28;20251;-90
2022/11/12 09:04:10;;;;;;;21.90;13.00;;;8.70;99.90;;;;;;10464220;28;20615;-90
2022/11/12 09:09:32;;;;;;;27.80;13.73;;;8.80;99.90;;;;;;10459147;28;20261;-90
2022/11/12 09:14:52;;;;;;;22.67;12.80;;;8.80;99.90;;;;;;10443017;28;20226;-90
2022/11/12 09:20:30;;;;;;;33.50;19.23;;;8.90;99.90;;;;;;10451262;28;20211;-91
2022/11/12 09:25:54;;;;;;;25.57;15.13;;;9.10;99.90;;;;;;10434659;28;20234;-91
2022/11/12 09:31:15;;;;;;;24.00;15.17;;;9.20;99.90;;;;;;10451911;28;20262;-92
2022/11/12 09:36:36;;;;;;;13.27;9.20;;;9.40;99.90;;;;;;10455879;28;20226;-91
2022/11/12 09:42:06;;;;;;;24.23;14.37;;;9.70;99.90;;;;;;10430068;28;20234;-91
2022/11/12 09:47:34;;;;;;;24.23;15.03;;;9.50;99.90;;;;;;10457829;28;20653;-91
2022/11/12 09:53:27;;;;;;;26.53;15.33;;;9.40;99.90;;;;;;10455491;28;20203;-91
2022/11/12 09:58:49;;;;;;;30.00;16.10;;;9.60;99.90;;;;;;10441523;28;20727;-91
2022/11/12 10:04:27;;;;;;;26.20;15.67;;;;;;;;;;10435654;28;20235;-92
2022/11/12 10:09:58;;;;;;;25.93;15.60;;;10.80;99.90;;;;;;10440148;28;20258;-91
2022/11/12 10:21:43;;;;;;;28.70;16.43;;;10.10;99.90;;;;;;10440167;28;20907;-90
2022/11/12 10:27:16;;;;;;;24.33;15.60;;;;;;;;;;10451572;28;20605;-91
2022/11/12 10:32:43;;;;;;;27.60;15.97;;;10.50;99.90;;;;;;10439127;28;20243;-89
2022/11/12 10:38:11;;;;;;;27.90;14.77;;;10.20;99.90;;;;;;10447067;28;20234;-88
2022/11/12 10:43:32;;;;;;;27.23;15.93;;;10.10;99.90;;;;;;10461532;28;20727;-90
2022/11/12 10:49:00;;;;;;;25.83;14.77;;;10.50;99.90;;;;;;10434681;28;20254;-88
2022/11/12 10:54:35;;;;;;;23.30;13.80;;;10.30;99.90;;;;;;10437669;28;20242;-89
2022/11/12 11:00:17;;;;;;;24.67;14.63;;;10.40;99.90;;;;;;10435071;28;20683;-89
2022/11/12 11:05:59;;;;;;;26.20;15.50;;;11.40;99.90;;;;;;10434906;28;20219;-89
2022/11/12 11:11:28;;;;;;;23.73;14.57;;;11.70;99.90;;;;;;10429685;28;20255;-89
2022/11/12 11:16:55;;;;;;;24.70;16.03;;;11.20;99.90;;;;;;10462174;28;20223;-89
2022/11/12 11:22:34;;;;;;;28.37;16.07;;;10.90;99.90;;;;;;10459342;28;20246;-89
2022/11/12 11:28:16;;;;;;;19.43;12.17;;;10.50;99.90;;;;;;10411099;28;20231;-89
2022/11/12 11:33:42;;;;;;;21.93;14.10;;;11.20;99.90;;;;;;10452342;28;20628;-89
2022/11/12 11:39:16;;;;;;;21.77;13.70;;;11.60;99.90;;;;;;10402239;28;20236;-89
2022/11/12 11:44:49;;;;;;;30.33;16.33;;;11.40;99.90;;;;;;10448088;28;20234;-89
2022/11/12 11:50:44;;;;;;;31.43;15.07;;;10.80;99.90;;;;;;10084679;28;10000501;-89
2022/11/12 11:56:34;;;;;;;22.77;14.03;;;10.80;99.90;;;;;;10432855;28;20272;-89
2022/11/12 12:01:58;;;;;;;27.10;15.53;;;10.90;99.90;;;;;;10428189;28;20244;-88
2022/11/12 12:07:24;;;;;;;26.40;14.70;;;10.90;99.90;;;;;;10425720;28;20235;-89
2022/11/12 12:12:58;;;;;;;24.20;14.80;;;12.10;99.90;;;;;;10444540;28;20254;-89
2022/11/12 12:18:24;;;;;;;31.33;15.53;;;11.60;99.90;;;;;;10446898;28;20235;-89
2022/11/12 12:23:46;;;;;;;24.90;15.33;;;11.00;99.90;;;;;;10430251;28;20248;-89
2022/11/12 12:29:33;;;;;;;29.33;15.57;;;10.80;99.90;;;;;;10441695;28;20754;-90
2022/11/12 12:35:27;;;;;;;22.27;14.67;;;10.80;99.90;;;;;;10433837;28;20235;-89
2022/11/12 12:41:00;;;;;;;23.77;13.17;;;10.60;99.90;;;;;;10437973;28;20234;-89
2022/11/12 12:46:25;;;;;;;23.00;13.27;;;10.70;99.90;;;;;;10454390;28;20204;-89
2022/11/12 12:51:47;;;;;;;25.70;13.57;;;10.80;99.90;;;;;;10452531;28;20255;-89
2022/11/12 12:57:30;;;;;;;20.50;13.10;;;10.80;99.90;;;;;;10434546;28;20252;-90
2022/11/12 13:02:51;;;;;;;21.13;12.37;;;10.80;99.90;;;;;;10442558;28;20235;-89
2022/11/12 13:08:19;;;;;;;21.77;13.30;;;10.80;99.90;;;;;;10437470;28;20242;-90
2022/11/12 13:13:40;;;;;;;25.60;14.07;;;10.80;99.90;;;;;;10457158;28;20671;-89
2022/11/12 13:19:01;;;;;;;19.83;11.50;;;10.60;99.90;;;;;;10458750;28;20208;-94
2022/11/12 13:24:59;;;;;;;23.97;12.33;;;13.30;99.90;;;;;;10455249;28;20552;-96
2022/11/12 13:30:24;;;;;;;33.13;14.00;;;11.60;99.90;;;;;;10441109;28;20554;-96
2022/11/12 13:35:45;;;;;;;26.07;14.37;;;11.00;99.90;;;;;;10447108;28;20205;-95
2022/11/12 13:41:18;;;;;;;20.20;13.50;;;10.90;99.90;;;;;;10476015;28;20207;-95
2022/11/12 13:46:39;;;;;;;24.00;14.20;;;10.90;99.90;;;;;;10486764;28;20202;-95
2022/11/12 13:52:01;;;;;;;28.97;14.70;;;;;;;;;;10475102;28;20230;-95
2022/11/12 13:57:28;;;;;;;27.70;14.97;;;10.70;99.90;;;;;;10477645;28;20220;-95
2022/11/12 14:03:03;;;;;;;28.57;16.03;;;10.70;99.90;;;;;;10491114;28;20207;-95
2022/11/12 14:09:09;;;;;;;17.87;10.33;;;10.60;99.90;;;;;;10466834;28;20203;-96
2022/11/12 14:14:49;;;;;;;33.30;16.90;;;11.50;99.90;;;;;;10421456;28;20200;-93
2022/11/12 14:20:17;;;;;;;33.40;17.47;;;13.70;99.90;;;;;;10469779;28;20196;-96
2022/11/12 14:25:54;;;;;;;28.53;16.37;;;11.20;99.90;;;;;;10486884;28;20207;-95
2022/11/12 14:31:23;;;;;;;29.70;15.17;;;10.60;99.90;;;;;;10481046;28;20215;-95
2022/11/12 14:36:46;;;;;;;27.73;15.57;;;10.40;99.90;;;;;;10481610;28;20196;-95
2022/11/12 14:42:14;;;;;;;23.07;14.20;;;10.30;99.90;;;;;;10467873;28;20202;-96
2022/11/12 14:47:36;;;;;;;27.10;15.80;;;11.20;99.90;;;;;;10498486;28;20194;-96
2022/11/12 14:53:08;;;;;;;32.67;15.70;;;10.60;99.90;;;;;;10489014;28;20226;-94
2022/11/12 14:58:31;;;;;;;29.50;16.53;;;10.30;99.90;;;;;;10444013;28;20219;-95
2022/11/12 15:04:03;;;;;;;27.40;15.80;;;10.30;99.90;;;;;;10445541;28;20204;-96
2022/11/12 15:09:36;;;;;;;33.60;19.33;;;10.20;99.90;;;;;;10456809;28;20209;-96
2022/11/12 15:15:17;;;;;;;42.53;24.60;;;10.10;99.90;;;;;;10444975;28;20188;-95
2022/11/12 15:20:43;;;;;;;34.77;20.47;;;10.10;99.90;;;;;;10441837;28;20203;-95
2022/11/12 15:26:13;;;;;;;33.07;18.73;;;10.00;99.90;;;;;;10449916;28;20203;-95
2022/11/12 15:31:53;;;;;;;33.90;18.27;;;10.00;99.90;;;;;;10452536;28;20231;-95
2022/11/12 15:37:18;;;;;;;34.23;19.13;;;10.00;99.90;;;;;;10453028;28;20207;-96
2022/11/12 15:42:41;;;;;;;27.93;17.97;;;10.00;99.90;;;;;;10454778;28;20199;-95
2022/11/12 15:48:11;;;;;;;41.67;19.20;;;9.90;99.90;;;;;;10451176;28;20196;-96
2022/11/12 15:53:33;;;;;;;30.67;17.37;;;10.00;99.90;;;;;;10422882;28;20220;-96
2022/11/12 15:58:56;;;;;;;29.60;18.27;;;10.00;99.90;;;;;;10409197;28;20196;-94
2022/11/12 16:04:19;;;;;;;39.80;21.70;;;10.00;99.90;;;;;;10412244;28;20622;-95
2022/11/12 16:09:47;;;;;;;39.47;22.80;;;9.80;99.90;;;;;;10413617;28;20216;-95
2022/11/12 16:15:24;;;;;;;45.93;25.43;;;9.80;99.90;;;;;;10422554;28;20192;-96
2022/11/12 16:20:50;;;;;;;54.00;30.07;;;9.80;99.90;;;;;;10418899;28;20200;-96
2022/11/12 16:26:16;;;;;;;47.90;30.73;;;9.70;99.90;;;;;;10371350;28;20208;-91
2022/11/12 16:31:40;;;;;;;63.20;34.60;;;10.00;99.90;;;;;;10364673;28;20256;-91
2022/11/12 16:37:00;;;;;;;58.73;32.87;;;9.90;99.90;;;;;;10362304;28;20677;-91
2022/11/12 16:42:21;;;;;;;54.93;29.97;;;9.90;99.90;;;;;;10378007;28;20240;-91
2022/11/12 16:47:45;;;;;;;58.93;32.20;;;9.80;99.90;;;;;;10359246;28;20236;-90
2022/11/12 16:53:06;;;;;;;52.63;31.00;;;9.70;99.90;;;;;;10378667;28;20260;-91
2022/11/12 16:58:27;;;;;;;53.37;29.47;;;9.70;99.90;;;;;;10428361;28;20250;-91
2022/11/12 17:03:54;;;;;;;49.03;28.40;;;9.60;99.90;;;;;;10434581;28;20234;-91
2022/11/12 17:09:15;;;;;;;55.27;29.90;;;9.60;99.90;;;;;;10451140;28;20238;-91
2022/11/12 17:14:36;;;;;;;47.63;28.43;;;9.50;99.90;;;;;;10453502;28;20230;-91
2022/11/12 17:19:58;;;;;;;55.53;31.13;;;9.60;99.90;;;;;;10448706;28;20234;-92
2022/11/12 17:25:18;;;;;;;54.70;29.77;;;9.50;99.90;;;;;;10459816;28;20551;-92
2022/11/12 17:30:39;;;;;;;54.07;30.27;;;9.60;99.90;;;;;;10454873;28;20254;-92
2022/11/12 17:36:02;;;;;;;57.70;30.70;;;9.70;99.90;;;;;;10456499;28;20243;-92
2022/11/12 17:41:27;;;;;;;50.37;29.10;;;9.60;99.90;;;;;;10440058;28;20250;-91
2022/11/12 17:46:49;;;;;;;57.63;31.60;;;9.70;99.90;;;;;;10447090;28;20235;-92
2022/11/12 17:52:10;;;;;;;55.03;32.40;;;9.70;99.90;;;;;;10444558;28;20329;-91
2022/11/12 17:57:31;;;;;;;52.70;30.30;;;9.70;99.90;;;;;;10433900;28;20743;-92
2022/11/12 18:02:54;;;;;;;52.50;28.33;;;9.70;99.90;;;;;;10451452;28;20549;-91
2022/11/12 18:08:16;;;;;;;55.57;31.60;;;9.70;99.90;;;;;;10463497;28;20218;-92
2022/11/12 18:13:37;;;;;;;46.17;26.90;;;9.80;99.90;;;;;;10465266;28;20682;-92
2022/11/12 18:18:58;;;;;;;47.87;28.40;;;9.80;99.90;;;;;;10444421;28;20238;-92
2022/11/12 18:24:19;;;;;;;48.63;27.07;;;9.80;99.90;;;;;;10398402;28;20204;-92
2022/11/12 18:29:40;;;;;;;52.67;29.63;;;9.80;99.90;;;;;;10428154;28;20231;-92
2022/11/12 18:35:01;;;;;;;53.57;26.93;;;9.80;99.90;;;;;;10463792;28;20243;-92
2022/11/12 18:40:22;;;;;;;45.07;27.13;;;9.80;99.90;;;;;;10454121;28;20246;-92
2022/11/12 18:45:43;;;;;;;48.97;24.87;;;9.80;99.90;;;;;;10448818;28;20207;-92
2022/11/12 18:51:10;;;;;;;48.47;26.87;;;9.80;99.90;;;;;;10426304;28;20647;-92
2022/11/12 18:56:31;;;;;;;49.60;28.90;;;9.80;99.90;;;;;;10452055;28;20259;-92
2022/11/12 19:01:52;;;;;;;48.67;31.23;;;9.80;99.90;;;;;;10436246;28;20269;-92
2022/11/12 19:07:13;;;;;;;59.27;35.20;;;9.80;99.90;;;;;;10462411;28;20246;-92
2022/11/12 19:12:34;;;;;;;60.47;33.27;;;9.80;99.90;;;;;;10422968;28;20642;-92
2022/11/12 19:17:55;;;;;;;57.33;31.67;;;9.80;99.90;;;;;;10462206;28;20239;-91
2022/11/12 19:23:16;;;;;;;52.90;29.47;;;9.70;99.90;;;;;;10451288;28;20246;-90
2022/11/12 19:28:38;;;;;;;62.50;32.70;;;9.60;99.90;;;;;;10432146;28;20241;-92
2022/11/12 19:34:00;;;;;;;68.37;38.47;;;9.60;99.90;;;;;;10437105;28;20254;-92
2022/11/12 19:39:21;;;;;;;81.20;43.30;;;9.70;99.90;;;;;;10426118;28;20235;-92
2022/11/12 19:44:42;;;;;;;77.97;42.50;;;9.80;99.90;;;;;;10447134;28;20242;-92
2022/11/12 19:50:03;;;;;;;75.37;44.57;;;9.80;99.90;;;;;;10447096;28;20901;-91
2022/11/12 19:55:27;;;;;;;89.13;48.43;;;9.80;99.90;;;;;;9752378;28;10000645;-92
2022/11/12 20:00:48;;;;;;;107.93;53.97;;;9.80;99.90;;;;;;10452515;28;20238;-92
2022/11/12 20:06:13;;;;;;;79.93;43.67;;;9.80;99.90;;;;;;10434348;28;20203;-91
2022/11/12 20:11:34;;;;;;;91.10;45.13;;;9.80;99.90;;;;;;10434221;28;20301;-91
2022/11/12 20:16:55;;;;;;;103.77;51.47;;;9.80;99.90;;;;;;10446315;28;20198;-91
2022/11/12 20:22:17;;;;;;;84.27;42.53;;;9.80;99.90;;;;;;10438879;28;20261;-91
2022/11/12 20:27:38;;;;;;;78.00;39.60;;;9.70;99.90;;;;;;10447440;28;20242;-91
2022/11/12 20:32:59;;;;;;;76.57;40.03;;;9.60;99.90;;;;;;10432476;28;20266;-91
2022/11/12 20:38:20;;;;;;;77.87;40.13;;;9.50;99.90;;;;;;10457947;28;20707;-91
2022/11/12 20:43:41;;;;;;;84.33;40.67;;;9.50;99.90;;;;;;10443365;28;20242;-91
2022/11/12 20:49:05;;;;;;;87.57;45.93;;;9.50;99.90;;;;;;10457420;28;20230;-91
2022/11/12 20:54:26;;;;;;;91.53;45.03;;;9.50;99.90;;;;;;10431507;28;20270;-91
2022/11/12 20:59:47;;;;;;;102.33;46.33;;;9.40;99.90;;;;;;10427567;28;20653;-91
2022/11/12 21:05:11;;;;;;;100.03;47.90;;;9.40;99.90;;;;;;10454514;28;20238;-91
2022/11/12 21:10:32;;;;;;;83.70;45.33;;;9.40;99.90;;;;;;10444120;28;20250;-91
2022/11/12 21:15:54;;;;;;;81.43;41.93;;;9.40;99.90;;;;;;10451853;28;20266;-91
2022/11/12 21:21:18;;;;;;;92.33;47.60;;;9.40;99.90;;;;;;10460739;28;20207;-92
2022/11/12 21:26:39;;;;;;;119.60;56.33;;;9.40;99.90;;;;;;10441431;28;20206;-92
2022/11/12 21:32:00;;;;;;;101.70;52.77;;;9.40;99.90;;;;;;10453647;28;20261;-92
2022/11/12 21:37:21;;;;;;;94.70;46.83;;;9.40;99.90;;;;;;10466438;28;20242;-92
2022/11/12 21:42:43;;;;;;;96.97;47.43;;;9.30;99.90;;;;;;10440417;28;20242;-92
2022/11/12 21:48:04;;;;;;;92.73;48.43;;;9.30;99.90;;;;;;10437224;28;20234;-92
2022/11/12 21:53:25;;;;;;;140.77;57.23;;;9.30;99.90;;;;;;10439407;28;20258;-91
2022/11/12 21:58:47;;;;;;;139.17;61.77;;;9.30;99.90;;;;;;10470144;28;20257;-92
2022/11/12 22:04:08;;;;;;;135.27;61.10;;;9.30;99.90;;;;;;10473843;28;20242;-91
2022/11/12 22:09:34;;;;;;;174.57;70.80;;;9.30;99.90;;;;;;10446573;28;20240;-91
2022/11/12 22:14:55;;;;;;;187.67;77.27;;;9.30;99.90;;;;;;10437962;28;20254;-91
2022/11/12 22:20:16;;;;;;;146.93;61.37;;;9.30;99.90;;;;;;10436918;28;20726;-92
2022/11/12 22:25:37;;;;;;;171.27;70.03;;;9.30;99.90;;;;;;10442091;28;20250;-92
2022/11/12 22:31:15;;;;;;;142.27;60.80;;;9.20;99.90;;;;;;10460643;28;20250;-91
2022/11/12 22:36:36;;;;;;;132.53;60.13;;;9.20;99.90;;;;;;10439650;28;20235;-92
2022/11/12 22:41:57;;;;;;;109.23;52.40;;;9.20;99.90;;;;;;10450708;28;20242;-91
2022/11/12 22:47:18;;;;;;;104.70;50.57;;;9.30;99.90;;;;;;10437323;28;20231;-91
2022/11/12 22:52:40;;;;;;;92.07;49.53;;;9.20;99.90;;;;;;10456403;28;20254;-91
2022/11/12 22:58:08;;;;;;;94.60;50.13;;;9.20;99.90;;;;;;10449762;28;20254;-91
2022/11/12 23:03:30;;;;;;;98.90;47.63;;;9.20;99.90;;;;;;10448661;28;20676;-91
2022/11/12 23:08:52;;;;;;;91.73;48.70;;;9.20;99.90;;;;;;10449197;28;20254;-91
2022/11/12 23:14:14;;;;;;;90.67;45.70;;;9.20;99.90;;;;;;10460255;28;20262;-92
2022/11/12 23:19:35;;;;;;;83.67;43.07;;;9.20;99.90;;;;;;10431159;28;20626;-93
2022/11/12 23:24:56;;;;;;;81.40;42.60;;;9.20;99.90;;;;;;10433562;28;20237;-93
2022/11/12 23:30:17;;;;;;;80.33;45.13;;;9.20;99.90;;;;;;10450701;28;20695;-92
2022/11/12 23:35:37;;;;;;;77.00;42.60;;;9.20;99.90;;;;;;10462767;28;20262;-92
2022/11/12 23:40:59;;;;;;;73.60;43.40;;;9.20;99.90;;;;;;10418980;28;20683;-92
2022/11/12 23:46:21;;;;;;;70.90;42.80;;;9.20;99.90;;;;;;10451395;28;20547;-92
2022/11/12 23:51:42;;;;;;;70.90;41.57;;;9.20;99.90;;;;;;10434543;28;20644;-92
2022/11/12 23:57:03;;;;;;;70.83;41.27;;;9.20;99.90;;;;;;10435172;28;20254;-91
